Terminal Aerodrome Forecast
Issued by NWS

Home | Current Version | Previous Version | Text Only | Print | Product List | Glossary On
Versions: 1 2 3 4 5 6 7 8 9 10 11 12 13 14 15 16 17 18 19 20 21 22 23 24 25 26 27 28 29 30
000
FTUS41 KRNK 151732
TAFLWB
TAF
KLWB 151732Z 1518/1618 23009KT P6SM FEW150
     FM160100 VRB03KT P6SM FEW250
     FM160800 VRB03KT P6SM SCT150 WS020/24035KT
     FM161400 25009KT P6SM BKN050=

USA.gov is the U.S. government's official web portal to all federal, state and local government web resources and services.